Terminal Aerodrome Forecast
Issued by NWS

Home | Current Version | Previous Version | Text Only | Print | Product List | Glossary On
Versions: 1 2 3 4 5 6 7 8 9 10 11 12 13 14 15 16
000
FTUS43 KIND 272320
TAFLAF
TAF
KLAF 272320Z 2800/2824 25007KT P6SM SKC
     FM280700 VRB03KT P6SM BKN130
     FM280800 VRB03KT P6SM VCSH BKN120
     FM280900 VRB03KT P6SM BKN110 PROB30 2810/2816 4SM -SHRA OVC025
     FM281700 29007KT P6SM OVC040 PROB30 2817/2818 4SM -SHRA OVC025
     FM281900 30007KT P6SM OVC030
      AMD LTD TO CLD VIS AND WIND 2801/2813=

USA.gov is the U.S. government's official web portal to all federal, state and local government web resources and services.